createdAt,value
2022-07-26T00:03:52.443Z,10.68
2022-07-26T00:08:10.869Z,11.48
2022-07-26T00:12:13.326Z,8.80
2022-07-26T00:16:15.774Z,8.52
2022-07-26T00:20:17.846Z,10.38
2022-07-26T00:24:20.190Z,13.13
2022-07-26T00:28:23.254Z,10.32
2022-07-26T00:32:25.742Z,11.80
2022-07-26T00:36:29.166Z,16.20
2022-07-26T00:40:31.819Z,8.50
2022-07-26T00:44:45.288Z,9.68
2022-07-26T00:48:47.843Z,9.07
2022-07-26T00:52:50.887Z,9.30
2022-07-26T00:56:55.313Z,9.57
2022-07-26T01:00:57.828Z,11.73
2022-07-26T01:05:00.482Z,8.57
2022-07-26T01:09:05.220Z,10.00
2022-07-26T01:13:07.777Z,8.13
2022-07-26T01:17:10.473Z,11.02
2022-07-26T01:21:14.328Z,12.85
2022-07-26T01:25:16.872Z,9.73
2022-07-26T01:29:19.093Z,9.32
2022-07-26T01:33:21.508Z,9.70
2022-07-26T01:37:23.783Z,11.85
2022-07-26T01:41:37.257Z,11.23
2022-07-26T01:45:40.833Z,15.10
2022-07-26T01:49:44.391Z,13.52
2022-07-26T01:53:48.186Z,11.10
2022-07-26T01:57:50.812Z,9.52
2022-07-26T02:01:53.266Z,10.68
2022-07-26T02:05:55.404Z,7.80
2022-07-26T02:09:58.784Z,10.45
2022-07-26T02:14:04.998Z,10.68
2022-07-26T02:18:08.258Z,11.95
2022-07-26T02:22:10.646Z,9.68
2022-07-26T02:26:13.074Z,12.10
2022-07-26T02:30:15.573Z,11.02
2022-07-26T02:34:18.437Z,11.23
2022-07-26T02:38:20.640Z,10.65
2022-07-26T02:42:24.587Z,14.77
2022-07-26T02:46:26.654Z,9.32
2022-07-26T02:50:29.832Z,9.85
2022-07-26T02:54:31.826Z,8.88
2022-07-26T02:58:34.059Z,9.52
2022-07-26T03:02:36.334Z,12.60
2022-07-26T03:06:38.742Z,7.65
2022-07-26T03:10:40.996Z,8.63
2022-07-26T03:14:43.407Z,8.32
2022-07-26T03:18:46.150Z,9.27
2022-07-26T03:22:48.777Z,17.50
2022-07-26T03:26:51.089Z,8.77
2022-07-26T03:30:53.628Z,9.95
2022-07-26T03:34:55.946Z,8.20
2022-07-26T03:38:58.360Z,8.25
2022-07-26T03:43:00.686Z,11.75
2022-07-26T03:47:05.353Z,9.63
2022-07-26T03:51:07.544Z,6.68
2022-07-26T03:55:30.191Z,7.95
2022-07-26T03:59:32.230Z,10.68
2022-07-26T04:03:34.484Z,7.72
2022-07-26T04:07:52.419Z,9.57
2022-07-26T04:11:59.173Z,10.43
2022-07-26T04:16:01.658Z,8.35
2022-07-26T04:20:04.345Z,10.35
2022-07-26T04:24:07.335Z,7.90
2022-07-26T04:28:11.303Z,9.13
2022-07-26T04:32:13.326Z,10.35
2022-07-26T04:36:15.596Z,14.55
2022-07-26T04:40:21.060Z,9.85
2022-07-26T04:44:23.929Z,10.88
2022-07-26T04:48:26.218Z,9.23
2022-07-26T04:52:28.757Z,15.40
2022-07-26T04:56:31.079Z,8.93
2022-07-26T05:00:35.043Z,16.15
2022-07-26T05:04:48.941Z,7.47
2022-07-26T05:08:51.270Z,9.27
2022-07-26T05:12:53.296Z,9.60
2022-07-26T05:16:55.703Z,8.05
2022-07-26T05:20:58.993Z,10.30
2022-07-26T05:25:01.384Z,8.18
2022-07-26T05:29:03.633Z,7.85
2022-07-26T05:33:05.922Z,8.45
2022-07-26T05:37:08.140Z,10.90
2022-07-26T05:41:10.346Z,8.65
2022-07-26T05:45:12.667Z,7.40
2022-07-26T05:49:15.097Z,5.93
2022-07-26T05:53:17.229Z,13.98
2022-07-26T05:57:19.543Z,10.52
2022-07-26T06:01:21.481Z,6.03
2022-07-26T06:05:25.404Z,10.80
2022-07-26T06:09:27.459Z,10.23
2022-07-26T06:13:29.839Z,9.65
2022-07-26T06:17:32.077Z,7.55
2022-07-26T06:21:34.792Z,12.10
2022-07-26T06:25:37.288Z,13.60
2022-07-26T06:29:40.520Z,10.75
2022-07-26T06:33:42.463Z,11.18
2022-07-26T06:37:44.757Z,8.45
2022-07-26T06:41:46.818Z,8.65
2022-07-26T06:45:49.568Z,5.90
2022-07-26T06:49:51.982Z,9.52
2022-07-26T06:53:54.383Z,8.73
2022-07-26T06:57:56.418Z,9.45
2022-07-26T07:02:00.504Z,6.13
2022-07-26T07:06:02.907Z,4.80
2022-07-26T07:10:06.300Z,5.07
2022-07-26T07:14:08.629Z,6.88
2022-07-26T07:18:12.075Z,8.93
2022-07-26T07:22:14.392Z,8.20
2022-07-26T07:26:16.646Z,8.65
2022-07-26T07:30:18.785Z,6.05
2022-07-26T07:34:24.064Z,9.38
2022-07-26T07:38:26.167Z,12.27
2022-07-26T07:42:28.633Z,12.30
2022-07-26T07:46:30.759Z,5.63
2022-07-26T07:50:33.565Z,5.07
2022-07-26T07:54:36.231Z,8.80
2022-07-26T07:58:38.629Z,5.35
2022-07-26T08:02:40.596Z,7.28
2022-07-26T08:06:42.950Z,5.18
2022-07-26T08:10:53.419Z,7.90
2022-07-26T08:14:55.819Z,5.93
2022-07-26T08:19:08.665Z,6.65
2022-07-26T08:23:11.307Z,10.52
2022-07-26T08:27:14.188Z,10.98
2022-07-26T08:31:17.038Z,5.60
2022-07-26T08:35:19.764Z,5.50
2022-07-26T08:39:22.614Z,6.55
2022-07-26T08:43:25.247Z,5.35
2022-07-26T08:47:39.938Z,5.72
2022-07-26T08:51:45.286Z,4.82
2022-07-26T09:00:15.645Z,4.05
2022-07-26T09:04:38.803Z,11.52
2022-07-26T09:08:42.831Z,6.60
2022-07-26T09:12:45.576Z,7.70
2022-07-26T09:16:59.318Z,7.05
2022-07-26T09:21:02.563Z,6.55
2022-07-26T09:25:20.338Z,13.82
2022-07-26T09:29:22.773Z,4.37
2022-07-26T09:33:26.655Z,6.45
2022-07-26T09:37:35.991Z,6.90
2022-07-26T09:41:38.134Z,5.65
2022-07-26T09:45:40.503Z,8.48
2022-07-26T09:49:43.166Z,8.60
2022-07-26T09:53:46.867Z,5.95
2022-07-26T09:57:51.163Z,7.43
2022-07-26T10:01:55.131Z,6.80
2022-07-26T10:05:58.625Z,7.13
2022-07-26T10:10:11.831Z,14.55
2022-07-26T10:14:38.633Z,5.75
2022-07-26T10:18:40.839Z,9.15
2022-07-26T10:22:47.571Z,10.93
2022-07-26T10:26:49.795Z,7.72
2022-07-26T10:30:51.910Z,18.50
2022-07-26T10:34:54.267Z,13.75
2022-07-26T10:39:02.190Z,10.90
2022-07-26T10:47:36.091Z,8.95
2022-07-26T10:51:40.656Z,12.68
2022-07-26T10:55:51.833Z,11.32
2022-07-26T10:59:57.726Z,7.13
2022-07-26T11:03:59.926Z,15.93
2022-07-26T11:08:10.647Z,9.40
2022-07-26T11:12:20.292Z,6.40
2022-07-26T11:16:23.461Z,13.05
2022-07-26T11:20:29.851Z,7.88
2022-07-26T11:24:32.376Z,7.72
2022-07-26T11:29:01.358Z,5.38
2022-07-26T11:33:08.758Z,7.97
2022-07-26T11:37:11.031Z,13.18
2022-07-26T11:41:15.360Z,8.30
2022-07-26T11:45:17.567Z,6.05
2022-07-26T11:53:59.857Z,13.13
2022-07-26T11:58:06.448Z,8.63
2022-07-26T12:02:09.600Z,15.07
2022-07-26T12:06:15.321Z,10.23
2022-07-26T12:10:17.302Z,10.68
2022-07-26T12:14:39.778Z,8.00
2022-07-26T12:18:51.566Z,14.18
2022-07-26T12:23:05.103Z,11.57
2022-07-26T12:27:11.619Z,10.40
2022-07-26T12:31:31.613Z,15.55
2022-07-26T12:35:35.700Z,11.50
2022-07-26T12:39:39.146Z,14.98
2022-07-26T12:43:41.476Z,13.07
2022-07-26T12:47:45.489Z,9.20
2022-07-26T12:51:47.653Z,19.50
2022-07-26T12:55:49.992Z,12.70
2022-07-26T12:59:52.095Z,14.15
2022-07-26T13:03:55.802Z,14.35
2022-07-26T13:07:58.117Z,14.35
2022-07-26T13:12:05.548Z,13.82
2022-07-26T13:16:11.859Z,14.05
2022-07-26T13:20:14.832Z,20.77
2022-07-26T13:24:19.395Z,23.50
2022-07-26T13:28:22.340Z,19.58
2022-07-26T13:32:24.495Z,16.67
2022-07-26T13:36:27.084Z,15.48
2022-07-26T13:40:31.518Z,19.88
2022-07-26T13:44:34.399Z,20.27
2022-07-26T13:48:36.513Z,28.80
2022-07-26T13:52:40.040Z,20.38
2022-07-26T13:56:42.514Z,24.70
2022-07-26T14:00:44.791Z,23.17
2022-07-26T14:04:46.925Z,27.10
2022-07-26T14:08:49.197Z,22.25
2022-07-26T14:12:51.658Z,28.33
2022-07-26T14:16:54.026Z,25.73
2022-07-26T14:20:56.172Z,25.70
2022-07-26T14:24:58.560Z,22.13
2022-07-26T14:29:00.606Z,20.33
2022-07-26T14:33:03.092Z,23.67
2022-07-26T14:37:08.405Z,17.67
2022-07-26T14:41:27.398Z,17.90
2022-07-26T14:45:30.261Z,19.20
2022-07-26T14:49:32.818Z,12.82
2022-07-26T14:53:35.062Z,13.20
2022-07-26T14:57:39.404Z,13.02
2022-07-26T15:01:43.342Z,14.43
2022-07-26T15:05:45.806Z,13.48
2022-07-26T15:09:47.932Z,15.68
2022-07-26T15:13:50.238Z,13.93
2022-07-26T15:17:52.667Z,13.90
2022-07-26T15:21:55.787Z,12.27
2022-07-26T15:25:58.482Z,10.55
2022-07-26T15:30:05.109Z,12.88
2022-07-26T15:34:11.522Z,10.80
2022-07-26T15:38:14.308Z,7.72
2022-07-26T15:42:16.447Z,9.93
2022-07-26T15:46:20.150Z,10.90
2022-07-26T15:50:25.084Z,11.93
2022-07-26T15:54:27.372Z,12.88
2022-07-26T15:58:30.101Z,9.00
2022-07-26T16:02:36.488Z,8.63
2022-07-26T16:06:38.848Z,8.52
2022-07-26T16:10:41.961Z,8.20
2022-07-26T16:14:46.832Z,8.57
2022-07-26T16:18:49.138Z,8.25
2022-07-26T16:22:51.220Z,6.05
2022-07-26T16:26:53.569Z,6.97
2022-07-26T16:30:55.580Z,9.95
2022-07-26T16:34:57.932Z,8.63
2022-07-26T16:39:00.019Z,8.13
2022-07-26T16:43:02.403Z,8.95
2022-07-26T16:47:11.820Z,9.68
2022-07-26T16:51:14.622Z,17.02
2022-07-26T16:55:16.617Z,7.00
2022-07-26T16:59:18.973Z,9.35
2022-07-26T17:03:21.044Z,17.67
2022-07-26T17:07:25.555Z,8.80
2022-07-26T17:11:28.132Z,10.77
2022-07-26T17:15:30.647Z,11.18
2022-07-26T17:19:32.726Z,11.13
2022-07-26T17:23:36.565Z,9.40
2022-07-26T17:27:38.737Z,13.27
2022-07-26T17:31:41.097Z,8.75
2022-07-26T17:35:43.879Z,13.98
2022-07-26T17:39:53.157Z,9.80
2022-07-26T17:43:56.328Z,9.90
2022-07-26T17:48:01.836Z,13.65
2022-07-26T17:52:09.006Z,17.23
2022-07-26T17:56:11.411Z,12.93
2022-07-26T18:00:14.285Z,12.95
2022-07-26T18:04:18.583Z,13.85
2022-07-26T18:08:22.063Z,14.23
2022-07-26T18:12:24.286Z,11.43
2022-07-26T18:16:27.516Z,14.80
2022-07-26T18:20:29.893Z,12.23
2022-07-26T18:24:32.058Z,10.27
2022-07-26T18:28:34.371Z,18.45
2022-07-26T18:32:36.506Z,15.43
2022-07-26T18:36:39.199Z,14.85
2022-07-26T18:40:41.249Z,18.02
2022-07-26T18:44:44.183Z,42.70
2022-07-26T18:48:46.231Z,70.47
2022-07-26T18:52:49.055Z,75.75
2022-07-26T18:56:51.186Z,39.17
2022-07-26T19:00:53.391Z,25.55
2022-07-26T19:04:55.378Z,30.08
2022-07-26T19:08:57.910Z,28.73
2022-07-26T19:12:59.947Z,17.58
2022-07-26T19:17:02.243Z,21.48
2022-07-26T19:21:04.391Z,15.60
2022-07-26T19:25:09.352Z,17.40
2022-07-26T19:29:11.643Z,17.90
2022-07-26T19:33:14.436Z,23.67
2022-07-26T19:37:21.524Z,17.63
2022-07-26T19:41:25.850Z,17.88
2022-07-26T19:45:27.923Z,37.13
2022-07-26T19:49:30.222Z,17.20
2022-07-26T19:53:32.330Z,13.65
2022-07-26T19:57:34.811Z,25.60
2022-07-26T20:01:36.894Z,30.15
2022-07-26T20:05:39.222Z,44.78
2022-07-26T20:09:41.271Z,49.63
2022-07-26T20:13:44.517Z,37.42
2022-07-26T20:17:46.848Z,38.22
2022-07-26T20:21:49.969Z,26.35
2022-07-26T20:25:52.491Z,19.48
2022-07-26T20:30:00.438Z,16.75
2022-07-26T20:34:03.283Z,14.57
2022-07-26T20:38:05.612Z,22.40
2022-07-26T20:42:09.365Z,17.35
2022-07-26T20:46:19.769Z,18.20
2022-07-26T20:50:23.400Z,22.23
2022-07-26T20:54:26.700Z,16.08
2022-07-26T20:58:28.898Z,13.35
2022-07-26T21:02:31.311Z,20.35
2022-07-26T21:06:34.013Z,15.07
2022-07-26T21:10:36.767Z,13.15
2022-07-26T21:14:39.488Z,13.00
2022-07-26T21:18:41.810Z,18.77
2022-07-26T21:22:43.902Z,10.45
2022-07-26T21:26:46.295Z,16.00
2022-07-26T21:30:48.687Z,23.48
2022-07-26T21:34:51.106Z,12.35
2022-07-26T21:38:53.247Z,15.55
2022-07-26T21:42:55.655Z,15.55
2022-07-26T21:46:57.749Z,17.88
2022-07-26T21:51:00.136Z,15.23
2022-07-26T21:55:02.398Z,16.13
2022-07-26T21:59:04.627Z,18.23
2022-07-26T22:03:07.107Z,9.35
2022-07-26T22:07:09.401Z,17.10
2022-07-26T22:11:11.529Z,16.08
2022-07-26T22:15:13.944Z,19.75
2022-07-26T22:19:16.087Z,16.45
2022-07-26T22:23:19.218Z,11.32
2022-07-26T22:27:21.281Z,16.65
2022-07-26T22:31:23.697Z,11.68
2022-07-26T22:35:32.363Z,11.50
2022-07-26T22:39:38.752Z,15.30
2022-07-26T22:43:40.922Z,13.60
2022-07-26T22:47:55.578Z,17.85
2022-07-26T22:51:58.639Z,22.15
2022-07-26T22:56:00.883Z,11.52
2022-07-26T23:00:03.124Z,19.95
2022-07-26T23:04:05.587Z,12.05
2022-07-26T23:08:29.450Z,14.57
2022-07-26T23:12:31.153Z,20.20
2022-07-26T23:16:33.687Z,14.98
2022-07-26T23:20:36.522Z,13.73
2022-07-26T23:24:38.913Z,20.17
2022-07-26T23:28:45.826Z,12.32
2022-07-26T23:32:47.876Z,16.02
2022-07-26T23:36:50.337Z,12.95
2022-07-26T23:40:52.386Z,19.27
2022-07-26T23:44:54.673Z,20.35
2022-07-26T23:48:58.892Z,15.15
2022-07-26T23:53:01.320Z,12.85
2022-07-26T23:57:03.677Z,23.80
